Time;durP1;ratioP1;P1;durP2;ratioP2;P2;SDS_P1;SDS_P2;PMS_P1;PMS_P2;Temp;Humidity;BMP_temperature;BMP_pressure;BME280_temperature;BME280_humidity;BME280_pressure;Samples;Min_cycle;Max_cycle;Signal;HPM_P1;HPM_P2
2022/04/02 00:00:46;;;;;;;;;;;2.10;74.10;;;;;;5081104;28;19913;-71
2022/04/02 00:03:12;;;;;;;;;;;2.10;73.60;;;;;;5080188;28;20402;-71
2022/04/02 00:05:37;;;;;;;;;;;2.00;73.40;;;;;;5080983;28;19909;-71
2022/04/02 00:08:04;;;;;;;;;;;2.00;73.50;;;;;;5081047;28;19920;-71
2022/04/02 00:10:29;;;;;;;;;;;1.90;73.30;;;;;;5080541;28;19996;-71
2022/04/02 00:12:56;;;;;;;;;;;1.90;73.20;;;;;;5080838;28;19959;-71
2022/04/02 00:15:22;;;;;;;;;;;1.90;73.40;;;;;;5080847;28;20042;-71
2022/04/02 00:17:47;;;;;;;;;;;1.80;73.50;;;;;;5080888;28;19985;-71
2022/04/02 00:20:13;;;;;;;;;;;1.80;73.00;;;;;;5080632;28;19908;-71
2022/04/02 00:23:35;;;;;;;;;;;1.80;73.00;;;;;;5080177;28;19997;-71
2022/04/02 00:25:24;;;;;;;;;;;1.80;74.30;;;;;;5080027;28;20425;-71
2022/04/02 00:27:49;;;;;;;;;;;1.70;74.40;;;;;;5078239;28;21020;-71
2022/04/02 00:30:16;;;;;;;;;;;1.70;75.40;;;;;;5080541;28;19909;-71
2022/04/02 00:32:41;;;;;;;;;;;1.70;77.50;;;;;;5080574;28;20359;-71
2022/04/02 00:35:08;;;;;;;;;;;1.70;79.30;;;;;;5080281;28;19999;-71
2022/04/02 00:37:34;;;;;;;;;;;1.70;79.00;;;;;;5080655;28;19934;-70
2022/04/02 00:40:00;;;;;;;;;;;1.70;79.00;;;;;;5079773;28;20394;-70
2022/04/02 00:42:26;;;;;;;;;;;1.70;77.40;;;;;;5080504;28;19908;-71
2022/04/02 00:44:52;;;;;;;;;;;1.70;76.50;;;;;;5079089;28;20378;-71
2022/04/02 00:47:17;;;;;;;;;;;1.70;77.90;;;;;;5080011;28;19912;-71
2022/04/02 00:49:43;;;;;;;;;;;1.70;79.70;;;;;;5080258;28;19912;-71
2022/04/02 00:52:09;;;;;;;;;;;1.60;78.70;;;;;;5080196;28;19912;-71
2022/04/02 00:54:34;;;;;;;;;;;1.60;77.30;;;;;;5079677;28;19908;-71
2022/04/02 00:57:01;;;;;;;;;;;1.60;77.00;;;;;;5080089;28;19919;-70
2022/04/02 00:59:26;;;;;;;;;;;1.60;78.10;;;;;;5080048;28;19908;-70
2022/04/02 01:01:52;;;;;;;;;;;1.60;78.00;;;;;;5080032;28;20022;-71
2022/04/02 01:04:18;;;;;;;;;;;1.60;77.70;;;;;;5078895;28;19916;-71
2022/04/02 01:06:44;;;;;;;;;;;1.60;78.00;;;;;;5079890;28;20003;-71
2022/04/02 01:09:10;;;;;;;;;;;1.60;78.80;;;;;;5078236;28;19923;-71
2022/04/02 01:11:43;;;;;;;;;;;1.60;78.70;;;;;;5079688;28;20371;-71
2022/04/02 01:14:10;;;;;;;;;;;1.70;78.50;;;;;;5066731;28;20429;-71
2022/04/02 01:16:35;;;;;;;;;;;1.80;77.20;;;;;;5079588;28;19909;-71
2022/04/02 01:19:02;;;;;;;;;;;1.80;77.40;;;;;;5079795;28;19914;-71
2022/04/02 01:21:28;;;;;;;;;;;1.90;77.70;;;;;;5079684;28;19912;-71
2022/04/02 01:23:54;;;;;;;;;;;1.90;77.10;;;;;;5078654;28;19958;-71
2022/04/02 01:26:20;;;;;;;;;;;1.90;76.50;;;;;;5079214;28;19916;-70
2022/04/02 01:28:53;;;;;;;;;;;1.90;76.40;;;;;;5078961;28;19919;-70
2022/04/02 01:31:19;;;;;;;;;;;1.90;76.00;;;;;;5079448;28;20026;-70
2022/04/02 01:33:45;;;;;;;;;;;1.90;75.20;;;;;;5079126;28;19976;-71
2022/04/02 01:36:11;;;;;;;;;;;1.80;74.70;;;;;;5079368;28;20387;-70
2022/04/02 01:38:36;;;;;;;;;;;1.80;74.70;;;;;;5079300;28;19908;-71
2022/04/02 01:41:02;;;;;;;;;;;1.80;75.80;;;;;;5078743;28;19958;-70
2022/04/02 01:43:28;;;;;;;;;;;1.70;75.10;;;;;;5078278;28;19908;-71
2022/04/02 01:45:54;;;;;;;;;;;1.70;75.40;;;;;;5079215;28;19909;-71
2022/04/02 01:48:20;;;;;;;;;;;1.80;77.10;;;;;;5078665;28;19924;-70
2022/04/02 01:50:45;;;;;;;;;;;1.80;79.70;;;;;;5079009;28;19909;-71
2022/04/02 01:53:11;;;;;;;;;;;1.80;79.90;;;;;;5061126;28;19915;-71
2022/04/02 01:55:37;;;;;;;;;;;1.80;80.20;;;;;;5078670;28;19940;-71
2022/04/02 01:58:02;;;;;;;;;;;1.90;80.00;;;;;;5079038;28;19944;-71
2022/04/02 02:00:28;;;;;;;;;;;1.90;78.60;;;;;;5078959;28;19954;-71
2022/04/02 02:02:54;;;;;;;;;;;1.90;79.60;;;;;;5077864;28;19983;-71
2022/04/02 02:05:19;;;;;;;;;;;1.90;81.00;;;;;;5078936;28;19980;-71
2022/04/02 02:07:51;;;;;;;;;;;1.80;80.20;;;;;;5078701;28;20003;-71
2022/04/02 02:10:18;;;;;;;;;;;1.80;80.10;;;;;;5078232;28;20394;-71
2022/04/02 02:12:44;;;;;;;;;;;1.80;81.70;;;;;;5078679;28;19909;-70
2022/04/02 02:15:16;;;;;;;;;;;1.80;82.00;;;;;;5078375;28;20406;-71
2022/04/02 02:17:46;;;;;;;;;;;1.80;82.90;;;;;;5078514;28;20061;-71
2022/04/02 02:20:12;;;;;;;;;;;1.80;84.20;;;;;;5078179;28;19930;-71
2022/04/02 02:22:39;;;;;;;;;;;1.70;83.80;;;;;;5078068;28;19916;-71
2022/04/02 02:25:05;;;;;;;;;;;1.60;82.20;;;;;;5077484;28;20268;-71
2022/04/02 02:27:31;;;;;;;;;;;1.60;80.80;;;;;;5075922;28;19938;-71
2022/04/02 02:29:57;;;;;;;;;;;1.50;80.90;;;;;;5078476;28;19999;-71
2022/04/02 02:32:22;;;;;;;;;;;1.50;80.20;;;;;;5078238;28;19909;-70
2022/04/02 02:37:32;;;;;;;;;;;1.40;81.70;;;;;;5078238;28;20362;-71
2022/04/02 02:39:59;;;;;;;;;;;1.40;79.80;;;;;;5077507;28;19954;-71
2022/04/02 02:42:25;;;;;;;;;;;1.40;81.80;;;;;;5078232;28;20283;-71
2022/04/02 02:44:50;;;;;;;;;;;1.30;80.20;;;;;;5076799;28;19969;-71
2022/04/02 02:47:16;;;;;;;;;;;1.30;81.20;;;;;;5078181;28;20324;-70
2022/04/02 02:49:41;;;;;;;;;;;1.30;83.00;;;;;;5077866;28;19920;-71
2022/04/02 02:52:07;;;;;;;;;;;1.30;83.20;;;;;;5078045;28;19999;-71
2022/04/02 02:54:33;;;;;;;;;;;1.20;82.40;;;;;;5077428;28;20435;-70
2022/04/02 02:56:59;;;;;;;;;;;1.20;81.10;;;;;;5077891;28;19936;-70
2022/04/02 02:59:24;;;;;;;;;;;1.10;81.50;;;;;;5077877;28;19908;-70
2022/04/02 03:01:50;;;;;;;;;;;1.10;82.70;;;;;;5077872;28;19912;-70
2022/04/02 03:04:18;;;;;;;;;;;1.10;81.30;;;;;;5076728;28;19912;-70
2022/04/02 03:06:44;;;;;;;;;;;1.10;80.70;;;;;;5077806;28;19916;-71
2022/04/02 03:09:10;;;;;;;;;;;1.10;82.40;;;;;;5059559;28;20426;-70
2022/04/02 03:11:36;;;;;;;;;;;1.00;81.90;;;;;;5077755;28;19912;-70
2022/04/02 03:14:02;;;;;;;;;;;1.00;82.10;;;;;;5077801;28;19909;-70
2022/04/02 03:16:28;;;;;;;;;;;1.00;82.10;;;;;;5077938;28;19915;-70
2022/04/02 03:18:54;;;;;;;;;;;1.00;82.00;;;;;;5077562;28;19908;-71
2022/04/02 03:21:20;;;;;;;;;;;1.00;82.50;;;;;;5077905;28;19913;-70
2022/04/02 03:23:46;;;;;;;;;;;1.00;82.60;;;;;;5076586;28;19952;-71
2022/04/02 03:26:11;;;;;;;;;;;1.00;81.30;;;;;;5077012;28;19913;-71
2022/04/02 03:28:37;;;;;;;;;;;0.90;80.10;;;;;;5077038;28;19939;-70
2022/04/02 03:31:03;;;;;;;;;;;0.90;78.90;;;;;;5078153;28;19912;-70
2022/04/02 03:33:29;;;;;;;;;;;0.80;79.00;;;;;;5081609;28;19934;-70
2022/04/02 03:35:55;;;;;;;;;;;0.90;78.80;;;;;;5081758;28;19958;-70
2022/04/02 03:38:20;;;;;;;;;;;0.90;80.90;;;;;;5081479;28;19909;-71
2022/04/02 03:40:46;;;;;;;;;;;0.90;82.20;;;;;;5081029;28;19908;-70
2022/04/02 03:43:12;;;;;;;;;;;0.90;83.10;;;;;;5080689;28;19970;-71
2022/04/02 03:45:37;;;;;;;;;;;0.90;83.70;;;;;;5081548;28;20012;-70
2022/04/02 03:48:03;;;;;;;;;;;0.90;84.10;;;;;;5081164;28;19921;-71
2022/04/02 03:50:28;;;;;;;;;;;0.90;83.90;;;;;;5081531;28;19909;-71
2022/04/02 03:52:54;;;;;;;;;;;0.90;83.90;;;;;;5081071;28;19908;-70
2022/04/02 03:55:20;;;;;;;;;;;0.80;84.20;;;;;;5080968;28;20287;-71
2022/04/02 03:57:47;;;;;;;;;;;0.80;84.10;;;;;;5081434;28;19908;-71
2022/04/02 04:00:13;;;;;;;;;;;0.80;84.70;;;;;;5081236;28;19916;-71
2022/04/02 04:02:39;;;;;;;;;;;0.80;84.10;;;;;;5080469;28;19908;-71
2022/04/02 04:05:08;;;;;;;;;;;0.80;84.30;;;;;;5080887;28;19909;-71
2022/04/02 04:07:34;;;;;;;;;;;0.80;84.30;;;;;;5081079;28;19975;-71
2022/04/02 04:10:00;;;;;;;;;;;0.80;84.80;;;;;;5080759;28;19995;-71
2022/04/02 04:12:25;;;;;;;;;;;0.80;84.60;;;;;;5080828;28;20391;-71
2022/04/02 04:14:51;;;;;;;;;;;0.80;85.40;;;;;;5080922;28;19991;-71
2022/04/02 04:17:16;;;;;;;;;;;0.70;85.30;;;;;;5080730;28;19908;-71
2022/04/02 04:19:42;;;;;;;;;;;0.80;85.40;;;;;;5081181;28;19912;-71
2022/04/02 04:22:10;;;;;;;;;;;0.70;85.10;;;;;;5080753;28;19908;-71
2022/04/02 04:24:35;;;;;;;;;;;0.70;84.70;;;;;;5079247;28;20711;-71
2022/04/02 04:27:01;;;;;;;;;;;0.70;85.20;;;;;;5080011;28;19955;-71
2022/04/02 04:29:27;;;;;;;;;;;0.70;85.20;;;;;;5080579;28;20327;-71
2022/04/02 04:31:52;;;;;;;;;;;0.60;84.40;;;;;;5062446;28;19958;-71
2022/04/02 04:34:18;;;;;;;;;;;0.70;83.90;;;;;;5080341;28;20353;-71
2022/04/02 04:36:44;;;;;;;;;;;0.70;84.80;;;;;;5080263;28;19915;-71
2022/04/02 04:39:09;;;;;;;;;;;0.60;85.10;;;;;;5080267;28;19912;-71
2022/04/02 04:41:38;;;;;;;;;;;0.60;84.40;;;;;;5080318;28;19954;-71
2022/04/02 04:44:03;;;;;;;;;;;0.60;84.20;;;;;;5079384;28;19915;-71
2022/04/02 04:46:29;;;;;;;;;;;0.60;83.70;;;;;;5080191;28;20014;-71
2022/04/02 04:48:55;;;;;;;;;;;0.60;84.60;;;;;;5079943;28;19920;-71
2022/04/02 04:51:23;;;;;;;;;;;0.60;84.00;;;;;;5080130;28;19955;-71
2022/04/02 04:53:51;;;;;;;;;;;0.60;84.60;;;;;;5079657;28;20131;-71
2022/04/02 04:56:16;;;;;;;;;;;0.60;85.50;;;;;;5079735;28;19908;-71
2022/04/02 04:58:42;;;;;;;;;;;0.70;86.30;;;;;;5080244;28;20367;-70
2022/04/02 05:01:12;;;;;;;;;;;0.60;85.40;;;;;;5080111;28;19916;-70
2022/04/02 05:03:39;;;;;;;;;;;0.60;84.20;;;;;;5079167;28;19991;-71
2022/04/02 05:06:07;;;;;;;;;;;0.60;83.50;;;;;;5079883;28;19932;-71
2022/04/02 05:08:33;;;;;;;;;;;0.50;82.50;;;;;;5079900;28;19919;-70
2022/04/02 05:10:59;;;;;;;;;;;0.50;82.60;;;;;;5079498;28;19909;-71
2022/04/02 05:13:25;;;;;;;;;;;0.50;82.80;;;;;;5080104;28;19909;-71
2022/04/02 05:15:51;;;;;;;;;;;0.50;82.20;;;;;;5079936;28;20418;-71
2022/04/02 05:18:17;;;;;;;;;;;0.50;81.00;;;;;;5079987;28;19916;-71
2022/04/02 05:20:42;;;;;;;;;;;0.40;80.20;;;;;;5079943;28;19908;-71
2022/04/02 05:23:08;;;;;;;;;;;0.40;80.50;;;;;;5079828;28;19962;-71
2022/04/02 05:25:34;;;;;;;;;;;0.40;81.50;;;;;;5079453;28;19943;-71
2022/04/02 05:28:00;;;;;;;;;;;0.40;82.30;;;;;;5078092;28;19919;-71
2022/04/02 05:30:29;;;;;;;;;;;0.40;81.90;;;;;;5079537;28;19955;-71
2022/04/02 05:32:55;;;;;;;;;;;0.40;81.50;;;;;;5079600;28;19908;-71
2022/04/02 05:35:21;;;;;;;;;;;0.40;80.80;;;;;;5079348;28;20387;-71
2022/04/02 05:37:46;;;;;;;;;;;0.30;79.80;;;;;;5079510;28;20265;-71
2022/04/02 05:40:12;;;;;;;;;;;0.30;79.30;;;;;;5078548;28;19909;-71
2022/04/02 05:42:38;;;;;;;;;;;0.30;79.10;;;;;;5079364;28;19909;-71
2022/04/02 05:45:05;;;;;;;;;;;0.30;78.70;;;;;;5079171;28;19915;-71
2022/04/02 05:47:41;;;;;;;;;;;0.30;78.30;;;;;;5079200;28;19927;-71
2022/04/02 05:50:08;;;;;;;;;;;0.30;77.90;;;;;;5067002;28;19924;-71
2022/04/02 05:52:33;;;;;;;;;;;0.30;77.80;;;;;;5079161;28;19908;-71
2022/04/02 05:54:59;;;;;;;;;;;0.30;79.00;;;;;;5078273;28;19939;-71
2022/04/02 05:57:25;;;;;;;;;;;0.30;81.00;;;;;;5079068;28;20018;-71
2022/04/02 05:59:51;;;;;;;;;;;0.30;81.50;;;;;;5079102;28;19909;-71
2022/04/02 06:02:16;;;;;;;;;;;0.40;83.30;;;;;;5078779;28;19961;-71
2022/04/02 06:04:42;;;;;;;;;;;0.40;83.80;;;;;;5079042;28;19915;-71
2022/04/02 06:07:08;;;;;;;;;;;0.30;83.10;;;;;;5078976;28;19992;-70
2022/04/02 06:09:33;;;;;;;;;;;0.40;83.40;;;;;;5060719;28;19917;-70
2022/04/02 06:11:59;;;;;;;;;;;0.40;84.10;;;;;;5078718;28;20883;-70
2022/04/02 06:14:24;;;;;;;;;;;0.40;84.10;;;;;;5078805;28;20390;-70
2022/04/02 06:16:50;;;;;;;;;;;0.40;84.00;;;;;;5078603;28;19912;-70
2022/04/02 06:19:17;;;;;;;;;;;0.50;84.30;;;;;;5078837;28;19915;-70
2022/04/02 06:21:43;;;;;;;;;;;0.50;85.00;;;;;;5078682;28;19909;-71
2022/04/02 06:24:09;;;;;;;;;;;0.50;85.00;;;;;;5078368;28;19909;-70
2022/04/02 06:26:34;;;;;;;;;;;0.50;83.50;;;;;;5060031;28;19952;-71
2022/04/02 06:29:00;;;;;;;;;;;0.60;82.20;;;;;;5078511;28;20014;-71
2022/04/02 06:31:25;;;;;;;;;;;0.60;81.70;;;;;;5078426;28;19908;-71
2022/04/02 06:33:51;;;;;;;;;;;0.60;81.40;;;;;;5078225;28;20374;-71
2022/04/02 06:36:17;;;;;;;;;;;0.60;80.80;;;;;;5078211;28;19960;-71
2022/04/02 06:38:43;;;;;;;;;;;0.70;80.20;;;;;;5078570;28;20291;-71
2022/04/02 06:41:08;;;;;;;;;;;0.70;79.80;;;;;;5077528;28;19915;-71
2022/04/02 06:43:34;;;;;;;;;;;0.70;79.40;;;;;;5078373;28;20366;-71
2022/04/02 06:46:00;;;;;;;;;;;0.80;80.60;;;;;;5078316;28;19920;-71
2022/04/02 06:48:25;;;;;;;;;;;0.80;80.00;;;;;;5077986;28;19967;-71
2022/04/02 06:50:53;;;;;;;;;;;0.90;80.60;;;;;;5078062;28;20055;-73
2022/04/02 06:53:18;;;;;;;;;;;0.90;79.70;;;;;;5078121;28;19909;-71
2022/04/02 06:55:45;;;;;;;;;;;1.00;80.50;;;;;;5077683;28;20414;-71
2022/04/02 06:58:20;;;;;;;;;;;1.00;79.40;;;;;;5078230;28;19908;-73
2022/04/02 07:00:46;;;;;;;;;;;1.10;81.10;;;;;;5077997;28;19916;-71
2022/04/02 07:03:11;;;;;;;;;;;1.10;81.00;;;;;;5077969;28;19913;-71
2022/04/02 07:05:37;;;;;;;;;;;1.20;80.90;;;;;;5077054;28;19915;-70
2022/04/02 07:08:03;;;;;;;;;;;1.30;82.90;;;;;;5077996;28;20375;-70
2022/04/02 07:10:28;;;;;;;;;;;1.30;82.80;;;;;;5077446;28;19913;-72
2022/04/02 07:12:54;;;;;;;;;;;1.40;82.40;;;;;;5077935;28;19915;-70
2022/04/02 07:15:19;;;;;;;;;;;1.40;81.60;;;;;;5077937;28;20011;-70
2022/04/02 07:17:45;;;;;;;;;;;1.50;81.00;;;;;;5077901;28;19999;-70
2022/04/02 07:20:12;;;;;;;;;;;1.60;82.10;;;;;;5077693;28;20379;-70
2022/04/02 07:22:38;;;;;;;;;;;1.60;82.00;;;;;;5077943;28;19999;-70
2022/04/02 07:25:04;;;;;;;;;;;1.70;82.30;;;;;;5077305;28;19959;-70
2022/04/02 07:27:31;;;;;;;;;;;1.70;83.40;;;;;;5077544;28;20261;-70
2022/04/02 07:29:57;;;;;;;;;;;1.80;84.90;;;;;;5077707;28;20325;-70
2022/04/02 07:32:23;;;;;;;;;;;1.90;84.80;;;;;;5077551;28;19909;-70
2022/04/02 07:34:49;;;;;;;;;;;2.00;84.40;;;;;;5077638;28;20256;-70
2022/04/02 07:37:20;;;;;;;;;;;2.00;84.60;;;;;;5077523;28;19962;-70
2022/04/02 07:39:52;;;;;;;;;;;2.10;84.70;;;;;;5077014;28;20004;-71
2022/04/02 07:42:26;;;;;;;;;;;2.20;85.40;;;;;;5077566;28;19908;-70
2022/04/02 07:44:58;;;;;;;;;;;2.30;85.60;;;;;;5077370;28;19909;-70
2022/04/02 07:47:24;;;;;;;;;;;2.40;85.20;;;;;;5077191;28;19924;-71
2022/04/02 07:49:53;;;;;;;;;;;2.50;84.70;;;;;;5077321;28;19917;-70
2022/04/02 07:52:20;;;;;;;;;;;2.60;84.50;;;;;;5077459;28;19908;-70
2022/04/02 07:54:47;;;;;;;;;;;2.80;84.70;;;;;;5077035;28;19911;-71
2022/04/02 07:57:14;;;;;;;;;;;3.10;85.70;;;;;;5077406;28;20287;-70
2022/04/02 07:59:42;;;;;;;;;;;3.80;87.40;;;;;;5064521;28;19943;-71
2022/04/02 08:02:52;;;;;;;;;;;4.80;88.50;;;;;;5077170;28;19909;-71
2022/04/02 08:04:56;;;;;;;;;;;5.80;88.00;;;;;;5066559;28;19913;-71
2022/04/02 08:07:22;;;;;;;;;;;6.80;87.50;;;;;;5077263;28;19912;-71
2022/04/02 08:09:49;;;;;;;;;;;7.70;86.70;;;;;;5077061;28;19916;-72
2022/04/02 08:12:15;;;;;;;;;;;8.50;85.90;;;;;;5077096;28;19995;-72
2022/04/02 08:14:41;;;;;;;;;;;9.30;85.20;;;;;;5077342;28;19909;-72
2022/04/02 08:17:08;;;;;;;;;;;10.10;83.50;;;;;;5077795;28;19948;-72
2022/04/02 08:19:36;;;;;;;;;;;10.80;82.70;;;;;;5081151;28;19948;-72
2022/04/02 08:22:02;;;;;;;;;;;11.50;82.20;;;;;;5080758;28;19938;-72
2022/04/02 08:24:27;;;;;;;;;;;12.20;81.10;;;;;;5080478;28;19915;-72
2022/04/02 08:27:05;;;;;;;;;;;13.00;80.10;;;;;;5080294;28;19924;-72
2022/04/02 08:29:49;;;;;;;;;;;13.60;78.40;;;;;;5080878;28;19917;-72
2022/04/02 08:32:21;;;;;;;;;;;14.50;76.00;;;;;;5067781;28;20565;-72
2022/04/02 08:34:58;;;;;;;;;;;15.20;75.20;;;;;;5080531;28;19904;-72
2022/04/02 08:37:45;;;;;;;;;;;15.80;74.00;;;;;;5080531;28;20287;-72
2022/04/02 08:40:30;;;;;;;;;;;16.40;72.70;;;;;;5079899;28;19919;-72
2022/04/02 08:43:22;;;;;;;;;;;17.00;70.70;;;;;;5041299;28;20023;-72
2022/04/02 08:45:54;;;;;;;;;;;17.40;68.80;;;;;;5077266;28;19997;-72
2022/04/02 08:48:21;;;;;;;;;;;17.80;68.40;;;;;;5066693;28;20019;-72
2022/04/02 08:50:53;;;;;;;;;;;18.00;66.50;;;;;;5079976;28;19909;-72
2022/04/02 08:53:20;;;;;;;;;;;18.00;64.40;;;;;;5059947;28;19908;-72
2022/04/02 08:55:50;;;;;;;;;;;18.20;62.60;;;;;;5079504;28;19908;-72
2022/04/02 08:58:34;;;;;;;;;;;18.30;60.50;;;;;;5080582;28;19909;-72
2022/04/02 09:01:07;;;;;;;;;;;18.40;59.70;;;;;;5079789;28;19912;-72
2022/04/02 09:03:51;;;;;;;;;;;18.50;58.70;;;;;;5080222;28;20360;-72
2022/04/02 09:06:18;;;;;;;;;;;18.70;58.90;;;;;;5068481;28;20268;-72
2022/04/02 09:08:44;;;;;;;;;;;19.20;57.80;;;;;;5079002;28;19913;-72
2022/04/02 09:11:09;;;;;;;;;;;19.80;58.90;;;;;;5060549;28;19916;-72
2022/04/02 09:14:01;;;;;;;;;;;20.30;57.70;;;;;;5079889;28;19955;-73
2022/04/02 09:16:28;;;;;;;;;;;20.50;55.70;;;;;;5074997;28;20313;-72
2022/04/02 09:19:04;;;;;;;;;;;21.00;53.70;;;;;;5079687;28;20394;-72
2022/04/02 09:21:34;;;;;;;;;;;21.30;54.40;;;;;;5079789;28;19970;-72
2022/04/02 09:24:02;;;;;;;;;;;21.80;54.40;;;;;;5079562;28;19936;-72
2022/04/02 09:27:00;;;;;;;;;;;22.10;51.40;;;;;;5077068;28;19912;-72
2022/04/02 09:29:30;;;;;;;;;;;22.40;52.60;;;;;;5025256;28;20422;-72
2022/04/02 09:32:34;;;;;;;;;;;22.90;50.60;;;;;;5077313;28;19987;-72
2022/04/02 09:35:06;;;;;;;;;;;23.20;50.20;;;;;;4981875;28;20362;-72
2022/04/02 09:37:50;;;;;;;;;;;23.70;51.00;;;;;;4997180;28;20420;-72
2022/04/02 09:40:18;;;;;;;;;;;23.90;48.60;;;;;;5047547;28;19951;-72
2022/04/02 09:42:44;;;;;;;;;;;23.80;47.20;;;;;;5079262;28;19931;-72
2022/04/02 09:45:14;;;;;;;;;;;23.50;46.10;;;;;;5079531;28;19912;-72
2022/04/02 09:47:40;;;;;;;;;;;22.90;46.80;;;;;;5079114;28;20364;-72
2022/04/02 09:50:10;;;;;;;;;;;22.50;48.00;;;;;;5079322;28;19913;-72
2022/04/02 09:52:56;;;;;;;;;;;22.50;48.10;;;;;;5079025;28;19909;-72
2022/04/02 09:55:24;;;;;;;;;;;22.50;47.90;;;;;;5078278;28;19916;-72
2022/04/02 09:58:08;;;;;;;;;;;22.00;47.40;;;;;;5078947;28;20046;-72
2022/04/02 10:00:40;;;;;;;;;;;21.50;47.60;;;;;;5078931;28;20273;-72
2022/04/02 10:03:08;;;;;;;;;;;21.60;48.30;;;;;;5078991;28;19908;-72
2022/04/02 10:05:44;;;;;;;;;;;21.80;48.50;;;;;;5078765;28;19908;-72
2022/04/02 10:08:22;;;;;;;;;;;21.90;48.50;;;;;;5078771;28;19909;-72
2022/04/02 10:10:50;;;;;;;;;;;22.10;48.20;;;;;;5078463;28;20390;-72
2022/04/02 10:13:16;;;;;;;;;;;22.10;46.80;;;;;;5060795;28;20264;-72
2022/04/02 10:15:42;;;;;;;;;;;22.00;46.60;;;;;;5078686;28;19916;-72
2022/04/02 10:18:10;;;;;;;;;;;22.10;46.20;;;;;;5078549;28;19995;-72
2022/04/02 10:20:36;;;;;;;;;;;21.90;45.90;;;;;;5078744;28;19908;-72
2022/04/02 10:23:16;;;;;;;;;;;21.70;46.60;;;;;;5078638;28;19908;-71
2022/04/02 10:25:57;;;;;;;;;;;21.30;46.10;;;;;;5078291;28;19909;-72
2022/04/02 10:28:27;;;;;;;;;;;21.00;46.90;;;;;;5078101;28;19920;-72
2022/04/02 10:30:55;;;;;;;;;;;20.90;46.40;;;;;;5078387;28;19920;-72
2022/04/02 10:33:27;;;;;;;;;;;20.80;46.80;;;;;;5078247;28;19909;-72
2022/04/02 10:35:54;;;;;;;;;;;20.50;46.70;;;;;;5078471;28;19916;-72
2022/04/02 10:38:36;;;;;;;;;;;20.40;45.60;;;;;;5078399;28;19908;-72
2022/04/02 10:41:04;;;;;;;;;;;20.40;46.10;;;;;;5077621;28;20294;-72
2022/04/02 10:43:34;;;;;;;;;;;20.40;46.20;;;;;;5065336;28;19995;-72
2022/04/02 10:46:01;;;;;;;;;;;20.50;46.70;;;;;;5078400;28;20279;-72
2022/04/02 10:48:27;;;;;;;;;;;21.00;47.70;;;;;;5078169;28;20011;-72
2022/04/02 10:50:54;;;;;;;;;;;21.70;43.40;;;;;;5077984;28;19954;-72
2022/04/02 10:53:21;;;;;;;;;;;22.30;43.30;;;;;;5078222;28;19954;-72
2022/04/02 10:55:49;;;;;;;;;;;22.90;44.80;;;;;;5077569;28;20291;-72
2022/04/02 10:58:20;;;;;;;;;;;23.40;43.40;;;;;;5077933;28;20253;-72
2022/04/02 11:00:47;;;;;;;;;;;23.90;43.30;;;;;;5077806;28;19908;-73
2022/04/02 11:03:20;;;;;;;;;;;24.40;44.70;;;;;;5078062;28;20000;-72
2022/04/02 11:05:46;;;;;;;;;;;24.80;41.70;;;;;;5078056;28;19908;-72
2022/04/02 11:08:12;;;;;;;;;;;25.10;39.90;;;;;;5077898;28;20284;-73
2022/04/02 11:10:38;;;;;;;;;;;25.20;37.30;;;;;;5077553;28;19909;-72
2022/04/02 11:13:04;;;;;;;;;;;25.40;39.90;;;;;;5077854;28;20362;-72
2022/04/02 11:15:36;;;;;;;;;;;25.50;40.80;;;;;;5077943;28;19987;-72
2022/04/02 11:18:02;;;;;;;;;;;25.50;39.70;;;;;;5077953;28;19916;-72
2022/04/02 11:20:34;;;;;;;;;;;25.70;40.80;;;;;;5077694;28;19948;-72
2022/04/02 11:23:05;;;;;;;;;;;25.80;41.80;;;;;;5077752;28;19916;-72
2022/04/02 11:25:31;;;;;;;;;;;26.10;41.40;;;;;;5064100;28;19916;-72
2022/04/02 11:28:08;;;;;;;;;;;26.20;41.90;;;;;;5077353;28;19909;-72
2022/04/02 11:30:41;;;;;;;;;;;26.40;42.10;;;;;;5064689;28;19913;-73
2022/04/02 11:33:13;;;;;;;;;;;26.50;40.00;;;;;;5077585;28;19909;-72
2022/04/02 11:35:50;;;;;;;;;;;26.30;37.90;;;;;;5077588;28;19909;-72
2022/04/02 11:38:20;;;;;;;;;;;25.80;39.50;;;;;;5077490;28;19909;-72
2022/04/02 11:40:50;;;;;;;;;;;25.50;39.50;;;;;;5076977;28;19908;-72
2022/04/02 11:43:17;;;;;;;;;;;24.70;38.00;;;;;;5077464;28;19947;-72
2022/04/02 11:45:45;;;;;;;;;;;23.90;37.60;;;;;;5077585;28;19909;-72
2022/04/02 11:48:12;;;;;;;;;;;23.30;39.50;;;;;;5077077;28;19931;-72
2022/04/02 11:50:39;;;;;;;;;;;23.00;40.50;;;;;;5077444;28;20382;-72
2022/04/02 11:53:05;;;;;;;;;;;22.80;40.00;;;;;;5079534;28;19909;-72
2022/04/02 11:55:33;;;;;;;;;;;22.70;41.10;;;;;;5081095;28;19954;-72
2022/04/02 11:57:59;;;;;;;;;;;22.90;41.30;;;;;;5068294;28;19915;-72
2022/04/02 12:00:26;;;;;;;;;;;23.20;41.60;;;;;;5081296;28;19944;-72
2022/04/02 12:02:52;;;;;;;;;;;23.60;41.50;;;;;;5081469;28;19930;-72
2022/04/02 12:05:20;;;;;;;;;;;23.90;39.80;;;;;;5081392;28;19955;-72
2022/04/02 12:07:52;;;;;;;;;;;24.10;39.60;;;;;;5081269;28;19915;-72
2022/04/02 12:10:27;;;;;;;;;;;24.30;39.20;;;;;;5080716;28;19912;-72
2022/04/02 12:12:58;;;;;;;;;;;24.40;39.60;;;;;;5080946;28;20347;-73
2022/04/02 12:15:25;;;;;;;;;;;24.60;38.50;;;;;;5081154;28;19915;-72
2022/04/02 12:17:52;;;;;;;;;;;24.50;36.90;;;;;;5081189;28;19965;-72
2022/04/02 12:20:27;;;;;;;;;;;24.40;36.60;;;;;;5080859;28;20436;-72
2022/04/02 12:23:13;;;;;;;;;;;24.40;37.60;;;;;;5081079;28;19908;-72
2022/04/02 12:25:39;;;;;;;;;;;24.30;38.30;;;;;;5051190;28;19909;-71
2022/04/02 12:28:13;;;;;;;;;;;24.20;37.60;;;;;;5080356;28;19946;-72
2022/04/02 12:30:40;;;;;;;;;;;24.20;37.60;;;;;;5068486;28;20356;-72
2022/04/02 12:33:07;;;;;;;;;;;24.00;36.70;;;;;;5080476;28;20425;-72
2022/04/02 12:35:34;;;;;;;;;;;23.60;37.90;;;;;;5080758;28;20007;-72
2022/04/02 12:38:02;;;;;;;;;;;23.50;39.10;;;;;;5080533;28;19908;-72
2022/04/02 12:40:29;;;;;;;;;;;23.50;39.00;;;;;;5079968;28;19908;-72
2022/04/02 12:42:56;;;;;;;;;;;23.40;38.40;;;;;;5080532;28;19915;-72
2022/04/02 12:45:23;;;;;;;;;;;23.00;38.70;;;;;;5080552;28;20351;-72
2022/04/02 12:48:10;;;;;;;;;;;22.70;37.10;;;;;;5080303;28;19920;-72
2022/04/02 12:50:36;;;;;;;;;;;22.30;37.00;;;;;;5080630;28;19999;-72
2022/04/02 12:53:01;;;;;;;;;;;22.00;38.40;;;;;;5080065;28;19948;-71
2022/04/02 12:55:29;;;;;;;;;;;21.80;37.40;;;;;;5080327;28;19944;-72
2022/04/02 12:57:55;;;;;;;;;;;21.90;39.10;;;;;;5080169;28;19915;-72
2022/04/02 13:00:26;;;;;;;;;;;22.00;38.20;;;;;;5080250;28;19955;-71
2022/04/02 13:02:56;;;;;;;;;;;21.90;36.00;;;;;;5079729;28;19948;-72
2022/04/02 13:05:23;;;;;;;;;;;21.80;37.50;;;;;;5079116;28;20278;-72
2022/04/02 13:08:01;;;;;;;;;;;21.50;38.10;;;;;;5066890;28;19999;-72
2022/04/02 13:10:28;;;;;;;;;;;21.20;38.80;;;;;;5079766;28;19913;-72
2022/04/02 13:12:54;;;;;;;;;;;21.00;39.60;;;;;;5080082;28;19936;-72
2022/04/02 13:15:21;;;;;;;;;;;20.60;37.60;;;;;;5080020;28;20359;-72
2022/04/02 13:20:41;;;;;;;;;;;19.90;38.20;;;;;;5079740;28;19919;-72
2022/04/02 13:23:07;;;;;;;;;;;19.50;37.10;;;;;;5079923;28;20425;-72
2022/04/02 13:25:33;;;;;;;;;;;19.30;39.70;;;;;;5079292;28;20293;-72
2022/04/02 13:28:05;;;;;;;;;;;19.00;39.60;;;;;;5076894;28;19908;-72
2022/04/02 13:30:32;;;;;;;;;;;18.60;40.10;;;;;;5079572;28;19913;-72
2022/04/02 13:33:04;;;;;;;;;;;18.20;39.30;;;;;;5079509;28;19909;-72
2022/04/02 13:35:41;;;;;;;;;;;17.80;38.90;;;;;;5067012;28;19915;-72
2022/04/02 13:38:25;;;;;;;;;;;17.60;41.20;;;;;;5079633;28;19915;-72
2022/04/02 13:40:54;;;;;;;;;;;17.50;41.70;;;;;;5078924;28;19912;-72
2022/04/02 13:43:30;;;;;;;;;;;17.40;40.70;;;;;;5079179;28;19909;-72
2022/04/02 13:46:02;;;;;;;;;;;17.30;40.50;;;;;;5079232;28;19910;-72
2022/04/02 13:48:28;;;;;;;;;;;17.20;40.60;;;;;;5079244;28;19921;-72
2022/04/02 13:51:03;;;;;;;;;;;17.00;41.10;;;;;;5079365;28;19913;-72
2022/04/02 13:53:38;;;;;;;;;;;16.90;40.80;;;;;;5079108;28;20321;-72
2022/04/02 13:56:07;;;;;;;;;;;16.60;42.20;;;;;;5078872;28;19908;-72
2022/04/02 13:58:34;;;;;;;;;;;16.40;42.20;;;;;;5079148;28;19908;-72
2022/04/02 14:01:06;;;;;;;;;;;16.10;42.80;;;;;;5079141;28;19916;-72
2022/04/02 14:03:32;;;;;;;;;;;16.00;43.40;;;;;;5079057;28;19954;-72
2022/04/02 14:05:59;;;;;;;;;;;15.90;43.40;;;;;;5078814;28;19914;-71
2022/04/02 14:08:34;;;;;;;;;;;15.90;42.50;;;;;;5078842;28;19991;-72
2022/04/02 14:11:04;;;;;;;;;;;15.80;43.30;;;;;;5066452;28;20007;-72
2022/04/02 14:13:34;;;;;;;;;;;15.90;42.40;;;;;;5078813;28;19954;-72
2022/04/02 14:16:04;;;;;;;;;;;15.80;43.40;;;;;;5078466;28;19973;-72
2022/04/02 14:18:39;;;;;;;;;;;15.80;43.20;;;;;;5078752;28;19940;-72
2022/04/02 14:21:12;;;;;;;;;;;15.80;44.50;;;;;;5078667;28;19998;-72
2022/04/02 14:23:43;;;;;;;;;;;15.90;43.90;;;;;;5078370;28;19916;-72
2022/04/02 14:26:09;;;;;;;;;;;15.80;43.50;;;;;;5077807;28;20275;-72
2022/04/02 14:28:40;;;;;;;;;;;15.70;43.70;;;;;;5077421;28;19912;-71
2022/04/02 14:31:08;;;;;;;;;;;15.50;42.70;;;;;;5060484;28;19912;-72
2022/04/02 14:33:53;;;;;;;;;;;15.40;43.70;;;;;;5078113;28;19908;-72
2022/04/02 14:36:40;;;;;;;;;;;15.20;43.80;;;;;;5078154;28;19909;-72